sensor_id;sensor_type;location;lat;lon;timestamp;pressure;altitude;pressure_sealevel;temperature;humidity
70589;BME280;58152;49.202;18.744;2023-01-30T00:00:33;97700.91;;;-3.92;57.92
70589;BME280;58152;49.202;18.744;2023-01-30T00:02:59;97699.16;;;-3.93;57.57
70589;BME280;58152;49.202;18.744;2023-01-30T00:05:24;97703.38;;;-3.95;58.02
70589;BME280;58152;49.202;18.744;2023-01-30T00:07:50;97699.00;;;-4.02;57.58
70589;BME280;58152;49.202;18.744;2023-01-30T00:10:15;97687.75;;;-4.11;58.14
70589;BME280;58152;49.202;18.744;2023-01-30T00:12:41;97692.03;;;-4.10;57.71
70589;BME280;58152;49.202;18.744;2023-01-30T00:15:07;97682.56;;;-4.15;58.05
70589;BME280;58152;49.202;18.744;2023-01-30T00:17:32;97671.38;;;-4.19;58.08
70589;BME280;58152;49.202;18.744;2023-01-30T00:19:57;97672.22;;;-4.20;57.97
70589;BME280;58152;49.202;18.744;2023-01-30T00:22:23;97659.47;;;-4.17;58.06
70589;BME280;58152;49.202;18.744;2023-01-30T00:24:48;97657.72;;;-4.19;58.38
70589;BME280;58152;49.202;18.744;2023-01-30T00:27:14;97661.19;;;-4.16;57.97
70589;BME280;58152;49.202;18.744;2023-01-30T00:29:39;97647.47;;;-4.19;58.33
70589;BME280;58152;49.202;18.744;2023-01-30T00:32:06;97645.75;;;-4.19;58.20
70589;BME280;58152;49.202;18.744;2023-01-30T00:34:31;97641.50;;;-4.18;58.05
70589;BME280;58152;49.202;18.744;2023-01-30T00:36:58;97638.94;;;-4.18;58.17
70589;BME280;58152;49.202;18.744;2023-01-30T00:39:23;97631.16;;;-4.24;58.60
70589;BME280;58152;49.202;18.744;2023-01-30T00:41:49;97636.25;;;-4.26;58.01
70589;BME280;58152;49.202;18.744;2023-01-30T00:44:33;97637.06;;;-4.28;58.48
70589;BME280;58152;49.202;18.744;2023-01-30T00:47:17;97639.59;;;-4.30;58.33
70589;BME280;58152;49.202;18.744;2023-01-30T00:49:42;97641.34;;;-4.27;58.83
70589;BME280;58152;49.202;18.744;2023-01-30T00:52:08;97627.50;;;-4.36;58.78
70589;BME280;58152;49.202;18.744;2023-01-30T00:54:33;97620.69;;;-4.37;58.70
70589;BME280;58152;49.202;18.744;2023-01-30T00:56:59;97622.41;;;-4.36;58.25
70589;BME280;58152;49.202;18.744;2023-01-30T00:59:25;97615.56;;;-4.37;58.79
70589;BME280;58152;49.202;18.744;2023-01-30T01:01:51;97608.66;;;-4.41;58.72
70589;BME280;58152;49.202;18.744;2023-01-30T01:04:16;97608.63;;;-4.42;58.84
70589;BME280;58152;49.202;18.744;2023-01-30T01:06:42;97599.16;;;-4.48;59.30
70589;BME280;58152;49.202;18.744;2023-01-30T01:09:07;97593.97;;;-4.51;58.67
70589;BME280;58152;49.202;18.744;2023-01-30T01:11:33;97578.59;;;-4.51;58.55
70589;BME280;58152;49.202;18.744;2023-01-30T01:14:00;97586.34;;;-4.46;58.63
70589;BME280;58152;49.202;18.744;2023-01-30T01:16:26;97574.31;;;-4.53;59.94
70589;BME280;58152;49.202;18.744;2023-01-30T01:18:53;97575.19;;;-4.51;58.93
70589;BME280;58152;49.202;18.744;2023-01-30T01:21:19;97569.19;;;-4.52;59.81
70589;BME280;58152;49.202;18.744;2023-01-30T01:23:49;97570.03;;;-4.53;59.36
70589;BME280;58152;49.202;18.744;2023-01-30T01:26:15;97567.47;;;-4.53;59.34
70589;BME280;58152;49.202;18.744;2023-01-30T01:28:41;97565.78;;;-4.52;59.78
70589;BME280;58152;49.202;18.744;2023-01-30T01:31:08;97560.59;;;-4.54;59.99
70589;BME280;58152;49.202;18.744;2023-01-30T01:33:34;97547.78;;;-4.57;59.60
70589;BME280;58152;49.202;18.744;2023-01-30T01:35:59;97553.75;;;-4.55;59.33
70589;BME280;58152;49.202;18.744;2023-01-30T01:38:25;97563.22;;;-4.52;59.48
70589;BME280;58152;49.202;18.744;2023-01-30T01:40:50;97556.41;;;-4.50;59.70
70589;BME280;58152;49.202;18.744;2023-01-30T01:43:35;97536.66;;;-4.57;59.94
70589;BME280;58152;49.202;18.744;2023-01-30T01:48:54;97539.19;;;-4.59;59.76
70589;BME280;58152;49.202;18.744;2023-01-30T01:51:28;97532.34;;;-4.62;59.88
70589;BME280;58152;49.202;18.744;2023-01-30T01:54:03;97533.13;;;-4.66;59.97
70589;BME280;58152;49.202;18.744;2023-01-30T01:56:31;97529.63;;;-4.69;60.20
70589;BME280;58152;49.202;18.744;2023-01-30T01:59:03;97531.34;;;-4.68;59.80
70589;BME280;58152;49.202;18.744;2023-01-30T02:01:32;97521.94;;;-4.71;59.42
70589;BME280;58152;49.202;18.744;2023-01-30T02:04:02;97516.72;;;-4.75;59.98
70589;BME280;58152;49.202;18.744;2023-01-30T02:06:30;97502.25;;;-4.73;59.85
70589;BME280;58152;49.202;18.744;2023-01-30T02:09:03;97503.03;;;-4.77;60.17
70589;BME280;58152;49.202;18.744;2023-01-30T02:11:36;97500.44;;;-4.80;59.85
70589;BME280;58152;49.202;18.744;2023-01-30T02:14:03;97502.94;;;-4.83;59.93
70589;BME280;58152;49.202;18.744;2023-01-30T02:16:30;97502.00;;;-4.87;59.89
70589;BME280;58152;49.202;18.744;2023-01-30T02:18:55;97504.56;;;-4.87;60.14
70589;BME280;58152;49.202;18.744;2023-01-30T02:40:56;97486.66;;;-4.87;60.15
70589;BME280;58152;49.202;18.744;2023-01-30T02:48:59;97474.69;;;-4.88;59.76
70589;BME280;58152;49.202;18.744;2023-01-30T02:51:29;97486.63;;;-4.89;60.39
70589;BME280;58152;49.202;18.744;2023-01-30T02:53:54;97473.84;;;-4.89;60.28
70589;BME280;58152;49.202;18.744;2023-01-30T02:56:20;97466.09;;;-4.92;60.13
70589;BME280;58152;49.202;18.744;2023-01-30T02:58:48;97469.59;;;-4.88;60.71
70589;BME280;58152;49.202;18.744;2023-01-30T03:01:32;97465.22;;;-4.94;60.57
70589;BME280;58152;49.202;18.744;2023-01-30T03:04:18;97467.88;;;-4.89;60.74
70589;BME280;58152;49.202;18.744;2023-01-30T03:15:30;97465.19;;;-4.95;60.92
70589;BME280;58152;49.202;18.744;2023-01-30T03:17:58;97460.91;;;-4.96;61.27
70589;BME280;58152;49.202;18.744;2023-01-30T03:20:24;97455.84;;;-4.95;60.58
70589;BME280;58152;49.202;18.744;2023-01-30T03:22:49;97467.81;;;-4.92;61.06
70589;BME280;58152;49.202;18.744;2023-01-30T03:25:20;97457.50;;;-4.97;60.61
70589;BME280;58152;49.202;18.744;2023-01-30T03:27:47;97473.75;;;-4.95;60.54
70589;BME280;58152;49.202;18.744;2023-01-30T03:30:14;97459.97;;;-5.00;61.58
70589;BME280;58152;49.202;18.744;2023-01-30T03:32:40;97456.56;;;-5.00;61.50
70589;BME280;58152;49.202;18.744;2023-01-30T03:35:05;97451.44;;;-5.00;61.61
70589;BME280;58152;49.202;18.744;2023-01-30T03:37:31;97450.63;;;-4.99;61.51
70589;BME280;58152;49.202;18.744;2023-01-30T03:39:57;97443.78;;;-5.00;61.73
70589;BME280;58152;49.202;18.744;2023-01-30T03:42:23;97449.75;;;-5.00;61.47
70589;BME280;58152;49.202;18.744;2023-01-30T03:44:48;97447.22;;;-4.98;61.58
70589;BME280;58152;49.202;18.744;2023-01-30T03:47:13;97444.72;;;-4.95;62.19
70589;BME280;58152;49.202;18.744;2023-01-30T03:49:39;97431.91;;;-4.95;62.00
70589;BME280;58152;49.202;18.744;2023-01-30T03:52:04;97425.13;;;-4.95;62.18
70589;BME280;58152;49.202;18.744;2023-01-30T03:54:30;97414.06;;;-4.92;61.66
70589;BME280;58152;49.202;18.744;2023-01-30T03:56:55;97419.22;;;-4.89;62.08
70589;BME280;58152;49.202;18.744;2023-01-30T03:59:21;97413.25;;;-4.90;62.56
70589;BME280;58152;49.202;18.744;2023-01-30T04:01:46;97402.16;;;-4.90;62.38
70589;BME280;58152;49.202;18.744;2023-01-30T04:04:11;97387.63;;;-4.91;63.02
70589;BME280;58152;49.202;18.744;2023-01-30T04:06:37;97383.34;;;-4.92;63.10
70589;BME280;58152;49.202;18.744;2023-01-30T04:09:02;97380.78;;;-4.92;62.76
70589;BME280;58152;49.202;18.744;2023-01-30T04:11:28;97374.81;;;-4.93;63.03
70589;BME280;58152;49.202;18.744;2023-01-30T04:13:53;97387.63;;;-4.91;63.87
70589;BME280;58152;49.202;18.744;2023-01-30T04:16:22;97379.06;;;-4.93;63.09
70589;BME280;58152;49.202;18.744;2023-01-30T04:18:47;97391.88;;;-4.92;63.44
70589;BME280;58152;49.202;18.744;2023-01-30T04:21:13;97385.88;;;-4.94;64.40
70589;BME280;58152;49.202;18.744;2023-01-30T04:23:39;97375.59;;;-4.95;63.47
70589;BME280;58152;49.202;18.744;2023-01-30T04:26:05;97377.34;;;-4.94;64.30
70589;BME280;58152;49.202;18.744;2023-01-30T04:28:34;97374.81;;;-4.91;64.29
70589;BME280;58152;49.202;18.744;2023-01-30T04:31:00;97369.69;;;-4.93;64.04
70589;BME280;58152;49.202;18.744;2023-01-30T04:33:25;97365.44;;;-4.91;64.25
70589;BME280;58152;49.202;18.744;2023-01-30T04:35:56;97352.69;;;-4.89;63.91
70589;BME280;58152;49.202;18.744;2023-01-30T04:38:23;97345.09;;;-4.84;64.36
70589;BME280;58152;49.202;18.744;2023-01-30T04:40:49;97352.97;;;-4.68;64.90
70589;BME280;58152;49.202;18.744;2023-01-30T04:43:15;97336.81;;;-4.64;64.26
70589;BME280;58152;49.202;18.744;2023-01-30T04:45:42;97335.16;;;-4.62;64.12
70589;BME280;58152;49.202;18.744;2023-01-30T04:48:08;97340.31;;;-4.60;63.71
70589;BME280;58152;49.202;18.744;2023-01-30T04:50:33;97336.88;;;-4.62;63.68
70589;BME280;58152;49.202;18.744;2023-01-30T04:52:59;97335.97;;;-4.66;63.93
70589;BME280;58152;49.202;18.744;2023-01-30T04:55:24;97330.84;;;-4.66;63.91
70589;BME280;58152;49.202;18.744;2023-01-30T04:57:49;97322.25;;;-4.68;64.59
70589;BME280;58152;49.202;18.744;2023-01-30T05:00:15;97320.53;;;-4.69;63.85
70589;BME280;58152;49.202;18.744;2023-01-30T05:02:41;97319.75;;;-4.66;64.35
70589;BME280;58152;49.202;18.744;2023-01-30T05:05:06;97323.16;;;-4.67;64.74
70589;BME280;58152;49.202;18.744;2023-01-30T05:07:32;97321.47;;;-4.65;64.17
70589;BME280;58152;49.202;18.744;2023-01-30T05:09:57;97315.41;;;-4.70;64.52
70589;BME280;58152;49.202;18.744;2023-01-30T05:12:23;97320.59;;;-4.67;64.50
70589;BME280;58152;49.202;18.744;2023-01-30T05:14:48;97321.47;;;-4.65;64.43
70589;BME280;58152;49.202;18.744;2023-01-30T05:17:14;97329.22;;;-4.59;64.73
70589;BME280;58152;49.202;18.744;2023-01-30T05:19:39;97326.69;;;-4.56;64.68
70589;BME280;58152;49.202;18.744;2023-01-30T05:22:04;97314.75;;;-4.57;64.37
70589;BME280;58152;49.202;18.744;2023-01-30T05:24:30;97314.75;;;-4.57;64.09
70589;BME280;58152;49.202;18.744;2023-01-30T05:26:55;97320.78;;;-4.52;64.59
70589;BME280;58152;49.202;18.744;2023-01-30T05:29:21;97311.44;;;-4.48;64.10
70589;BME280;58152;49.202;18.744;2023-01-30T05:31:46;97308.03;;;-4.46;64.81
70589;BME280;58152;49.202;18.744;2023-01-30T05:34:12;97301.16;;;-4.50;65.01
70589;BME280;58152;49.202;18.744;2023-01-30T05:36:37;97285.84;;;-4.45;64.98
70589;BME280;58152;49.202;18.744;2023-01-30T05:39:03;97291.03;;;-4.42;65.02
70589;BME280;58152;49.202;18.744;2023-01-30T05:41:29;97273.91;;;-4.45;65.43
70589;BME280;58152;49.202;18.744;2023-01-30T05:43:54;97279.91;;;-4.44;65.02
70589;BME280;58152;49.202;18.744;2023-01-30T05:46:20;97273.09;;;-4.41;65.61
70589;BME280;58152;49.202;18.744;2023-01-30T05:48:45;97257.72;;;-4.42;65.47
70589;BME280;58152;49.202;18.744;2023-01-30T05:51:24;97256.06;;;-4.37;65.65
70589;BME280;58152;49.202;18.744;2023-01-30T05:53:51;97246.69;;;-4.38;65.13
70589;BME280;58152;49.202;18.744;2023-01-30T05:56:17;97244.13;;;-4.37;65.39
70589;BME280;58152;49.202;18.744;2023-01-30T05:58:48;97241.63;;;-4.32;65.42
70589;BME280;58152;49.202;18.744;2023-01-30T06:01:14;97235.63;;;-4.32;65.63
70589;BME280;58152;49.202;18.744;2023-01-30T06:03:39;97251.00;;;-4.31;65.71
70589;BME280;58152;49.202;18.744;2023-01-30T06:06:05;97251.00;;;-4.31;65.51
70589;BME280;58152;49.202;18.744;2023-01-30T06:08:31;97245.06;;;-4.28;65.04
70589;BME280;58152;49.202;18.744;2023-01-30T06:11:01;97252.00;;;-4.20;65.06
70589;BME280;58152;49.202;18.744;2023-01-30T06:13:27;97244.31;;;-4.20;65.41
70589;BME280;58152;49.202;18.744;2023-01-30T06:15:52;97231.56;;;-4.17;65.38
70589;BME280;58152;49.202;18.744;2023-01-30T06:18:18;97240.91;;;-4.17;65.15
70589;BME280;58152;49.202;18.744;2023-01-30T06:20:47;97240.94;;;-4.16;64.88
70589;BME280;58152;49.202;18.744;2023-01-30T06:23:13;97226.44;;;-4.15;65.01
70589;BME280;58152;49.202;18.744;2023-01-30T06:25:42;97247.78;;;-4.13;65.08
70589;BME280;58152;49.202;18.744;2023-01-30T06:28:09;97242.72;;;-4.10;64.93
70589;BME280;58152;49.202;18.744;2023-01-30T06:30:34;97240.16;;;-4.09;64.67
70589;BME280;58152;49.202;18.744;2023-01-30T06:32:59;97269.25;;;-4.06;64.70
70589;BME280;58152;49.202;18.744;2023-01-30T06:35:25;97248.75;;;-4.03;64.15
70589;BME280;58152;49.202;18.744;2023-01-30T06:37:50;97236.81;;;-4.03;64.56
70589;BME280;58152;49.202;18.744;2023-01-30T06:40:16;97233.41;;;-3.99;64.55
70589;BME280;58152;49.202;18.744;2023-01-30T06:42:45;97221.50;;;-3.98;64.70
70589;BME280;58152;49.202;18.744;2023-01-30T06:45:15;97205.25;;;-3.94;64.38
70589;BME280;58152;49.202;18.744;2023-01-30T06:47:49;97186.47;;;-3.95;64.64
70589;BME280;58152;49.202;18.744;2023-01-30T06:50:16;97174.53;;;-3.90;64.49
70589;BME280;58152;49.202;18.744;2023-01-30T06:52:44;97155.75;;;-3.93;63.85
70589;BME280;58152;49.202;18.744;2023-01-30T06:55:11;97154.97;;;-3.85;64.53
70589;BME280;58152;49.202;18.744;2023-01-30T06:57:36;97141.28;;;-3.84;65.44
70589;BME280;58152;49.202;18.744;2023-01-30T07:00:04;97152.41;;;-3.81;65.05
70589;BME280;58152;49.202;18.744;2023-01-30T07:02:30;97157.56;;;-3.77;65.12
70589;BME280;58152;49.202;18.744;2023-01-30T07:04:58;97150.72;;;-3.76;65.15
70589;BME280;58152;49.202;18.744;2023-01-30T07:07:24;97144.75;;;-3.77;64.94
70589;BME280;58152;49.202;18.744;2023-01-30T07:09:49;97149.88;;;-3.77;64.88
70589;BME280;58152;49.202;18.744;2023-01-30T07:12:15;97145.59;;;-3.76;64.60
70589;BME280;58152;49.202;18.744;2023-01-30T07:14:40;97161.88;;;-3.74;65.03
70589;BME280;58152;49.202;18.744;2023-01-30T07:17:05;97164.44;;;-3.71;64.16
70589;BME280;58152;49.202;18.744;2023-01-30T07:19:31;97165.31;;;-3.71;64.37
70589;BME280;58152;49.202;18.744;2023-01-30T07:21:56;97151.66;;;-3.67;64.33
70589;BME280;58152;49.202;18.744;2023-01-30T07:24:21;97145.69;;;-3.63;63.99
70589;BME280;58152;49.202;18.744;2023-01-30T07:26:47;97155.97;;;-3.60;64.79
70589;BME280;58152;49.202;18.744;2023-01-30T07:29:13;97156.00;;;-3.55;64.44
70589;BME280;58152;49.202;18.744;2023-01-30T07:31:38;97149.22;;;-3.48;64.51
70589;BME280;58152;49.202;18.744;2023-01-30T07:34:04;97149.22;;;-3.48;63.87
70589;BME280;58152;49.202;18.744;2023-01-30T07:36:29;97138.09;;;-3.49;64.37
70589;BME280;58152;49.202;18.744;2023-01-30T07:38:58;97148.41;;;-3.43;63.50
70589;BME280;58152;49.202;18.744;2023-01-30T07:41:23;97144.13;;;-3.39;64.24
70589;BME280;58152;49.202;18.744;2023-01-30T07:43:49;97151.84;;;-3.38;63.29
70589;BME280;58152;49.202;18.744;2023-01-30T07:46:14;97155.31;;;-3.34;63.60
70589;BME280;58152;49.202;18.744;2023-01-30T07:48:40;97161.28;;;-3.32;63.83
70589;BME280;58152;49.202;18.744;2023-01-30T07:51:08;97164.72;;;-3.32;63.62
70589;BME280;58152;49.202;18.744;2023-01-30T07:53:33;97161.31;;;-3.29;63.72
70589;BME280;58152;49.202;18.744;2023-01-30T07:55:58;97162.19;;;-3.27;63.62
70589;BME280;58152;49.202;18.744;2023-01-30T07:58:24;97165.63;;;-3.23;63.92
70589;BME280;58152;49.202;18.744;2023-01-30T08:00:54;97180.16;;;-3.21;62.90
70589;BME280;58152;49.202;18.744;2023-01-30T08:03:19;97181.91;;;-3.18;62.81
70589;BME280;58152;49.202;18.744;2023-01-30T08:05:45;97175.91;;;-3.17;63.25
70589;BME280;58152;49.202;18.744;2023-01-30T08:08:11;97171.63;;;-3.17;63.01
70589;BME280;58152;49.202;18.744;2023-01-30T08:10:36;97161.41;;;-3.14;63.43
70589;BME280;58152;49.202;18.744;2023-01-30T08:13:02;97155.41;;;-3.13;63.21
70589;BME280;58152;49.202;18.744;2023-01-30T08:15:27;97133.16;;;-3.12;62.42
70589;BME280;58152;49.202;18.744;2023-01-30T08:17:56;97122.06;;;-3.10;62.89
70589;BME280;58152;49.202;18.744;2023-01-30T08:20:22;97134.91;;;-3.08;63.54
70589;BME280;58152;49.202;18.744;2023-01-30T08:22:48;97130.66;;;-3.06;62.80
70589;BME280;58152;49.202;18.744;2023-01-30T08:25:14;97110.97;;;-3.04;62.14
70589;BME280;58152;49.202;18.744;2023-01-30T08:27:39;97110.13;;;-3.01;62.54
70589;BME280;58152;49.202;18.744;2023-01-30T08:30:05;97105.00;;;-3.01;62.83
70589;BME280;58152;49.202;18.744;2023-01-30T08:32:31;97095.56;;;-2.99;62.08
70589;BME280;58152;49.202;18.744;2023-01-30T08:34:56;97092.16;;;-2.95;62.58
70589;BME280;58152;49.202;18.744;2023-01-30T08:37:22;97087.03;;;-2.97;62.76
70589;BME280;58152;49.202;18.744;2023-01-30T08:39:47;97087.03;;;-2.97;62.16
70589;BME280;58152;49.202;18.744;2023-01-30T08:42:13;97075.06;;;-2.92;62.73
70589;BME280;58152;49.202;18.744;2023-01-30T08:44:38;97072.50;;;-2.90;61.97
70589;BME280;58152;49.202;18.744;2023-01-30T08:47:03;97062.25;;;-2.92;62.12
70589;BME280;58152;49.202;18.744;2023-01-30T08:49:29;97070.81;;;-2.84;63.11
70589;BME280;58152;49.202;18.744;2023-01-30T08:51:54;97062.25;;;-2.83;62.43
70589;BME280;58152;49.202;18.744;2023-01-30T08:54:20;97047.72;;;-2.79;62.55
70589;BME280;58152;49.202;18.744;2023-01-30T08:56:45;97032.31;;;-2.77;61.81
70589;BME280;58152;49.202;18.744;2023-01-30T08:59:11;97061.41;;;-2.77;61.72
70589;BME280;58152;49.202;18.744;2023-01-30T09:01:36;97069.13;;;-2.77;62.76
70589;BME280;58152;49.202;18.744;2023-01-30T09:04:02;97068.25;;;-2.77;62.70
70589;BME280;58152;49.202;18.744;2023-01-30T09:06:28;97079.38;;;-2.75;62.67
70589;BME280;58152;49.202;18.744;2023-01-30T09:08:53;97073.41;;;-2.76;62.89
70589;BME280;58152;49.202;18.744;2023-01-30T09:11:19;97058.84;;;-2.75;63.15
70589;BME280;58152;49.202;18.744;2023-01-30T09:13:44;97052.84;;;-2.71;62.92
70589;BME280;58152;49.202;18.744;2023-01-30T09:16:10;97064.00;;;-2.66;61.95
70589;BME280;58152;49.202;18.744;2023-01-30T09:18:40;97060.59;;;-2.65;62.07
70589;BME280;58152;49.202;18.744;2023-01-30T09:21:07;97059.72;;;-2.66;61.98
70589;BME280;58152;49.202;18.744;2023-01-30T09:23:33;97062.31;;;-2.64;62.30
70589;BME280;58152;49.202;18.744;2023-01-30T09:25:58;97049.44;;;-2.67;62.84
70589;BME280;58152;49.202;18.744;2023-01-30T09:28:25;97050.31;;;-2.62;62.97
70589;BME280;58152;49.202;18.744;2023-01-30T09:30:50;97064.88;;;-2.61;62.95
70589;BME280;58152;49.202;18.744;2023-01-30T09:33:16;97057.16;;;-2.63;63.18
70589;BME280;58152;49.202;18.744;2023-01-30T09:35:46;97046.03;;;-2.63;63.36
70589;BME280;58152;49.202;18.744;2023-01-30T09:38:12;97034.91;;;-2.61;63.40
70589;BME280;58152;49.202;18.744;2023-01-30T09:46:51;97022.06;;;-2.58;62.95
70589;BME280;58152;49.202;18.744;2023-01-30T09:53:11;97010.06;;;-2.57;63.35
70589;BME280;58152;49.202;18.744;2023-01-30T09:55:39;97016.09;;;-2.55;63.32
70589;BME280;58152;49.202;18.744;2023-01-30T09:58:16;96998.09;;;-2.57;62.84
70589;BME280;58152;49.202;18.744;2023-01-30T10:00:42;97014.38;;;-2.50;63.81
70589;BME280;58152;49.202;18.744;2023-01-30T10:03:19;96996.41;;;-2.51;63.49
70589;BME280;58152;49.202;18.744;2023-01-30T10:05:52;97004.09;;;-2.45;63.79
70589;BME280;58152;49.202;18.744;2023-01-30T10:11:25;96986.13;;;-2.42;63.48
70589;BME280;58152;49.202;18.744;2023-01-30T10:16:49;96971.53;;;-2.40;63.72
70589;BME280;58152;49.202;18.744;2023-01-30T10:27:40;96951.84;;;-2.35;63.47
70589;BME280;58152;49.202;18.744;2023-01-30T10:30:13;96944.97;;;-2.35;63.98
70589;BME280;58152;49.202;18.744;2023-01-30T10:33:03;96942.44;;;-2.33;63.42
70589;BME280;58152;49.202;18.744;2023-01-30T10:35:33;96946.72;;;-2.34;63.71
70589;BME280;58152;49.202;18.744;2023-01-30T10:38:16;96938.13;;;-2.31;63.64
70589;BME280;58152;49.202;18.744;2023-01-30T10:43:58;96927.81;;;-2.25;63.75
70589;BME280;58152;49.202;18.744;2023-01-30T10:46:57;96938.13;;;-2.23;63.88
70589;BME280;58152;49.202;18.744;2023-01-30T10:49:44;96915.00;;;-2.23;63.97
70589;BME280;58152;49.202;18.744;2023-01-30T10:54:41;96905.56;;;-2.15;63.17
70589;BME280;58152;49.202;18.744;2023-01-30T10:57:26;96896.97;;;-2.14;63.89
70589;BME280;58152;49.202;18.744;2023-01-30T11:00:00;96885.84;;;-2.13;63.81
70589;BME280;58152;49.202;18.744;2023-01-30T11:05:41;96877.25;;;-2.08;63.84
70589;BME280;58152;49.202;18.744;2023-01-30T11:08:26;96861.81;;;-2.05;63.91
70589;BME280;58152;49.202;18.744;2023-01-30T11:10:52;96842.94;;;-2.03;63.82
70589;BME280;58152;49.202;18.744;2023-01-30T11:15:53;96834.38;;;-2.02;64.10
70589;BME280;58152;49.202;18.744;2023-01-30T11:18:21;96846.34;;;-1.98;63.75
70589;BME280;58152;49.202;18.744;2023-01-30T11:23:33;96837.78;;;-1.94;63.63
70589;BME280;58152;49.202;18.744;2023-01-30T11:26:00;96826.63;;;-1.92;64.18
70589;BME280;58152;49.202;18.744;2023-01-30T11:28:26;96833.47;;;-1.88;63.44
70589;BME280;58152;49.202;18.744;2023-01-30T11:30:56;96837.72;;;-1.82;63.83
70589;BME280;58152;49.202;18.744;2023-01-30T11:33:34;96821.44;;;-1.81;63.44
70589;BME280;58152;49.202;18.744;2023-01-30T11:36:04;96829.13;;;-1.78;62.95
70589;BME280;58152;49.202;18.744;2023-01-30T11:38:31;96820.56;;;-1.77;63.18
70589;BME280;58152;49.202;18.744;2023-01-30T11:43:35;96827.41;;;-1.76;63.35
70589;BME280;58152;49.202;18.744;2023-01-30T11:46:02;96828.25;;;-1.74;63.48
70589;BME280;58152;49.202;18.744;2023-01-30T11:48:30;96820.53;;;-1.74;62.65
70589;BME280;58152;49.202;18.744;2023-01-30T11:51:00;96824.81;;;-1.73;63.06
70589;BME280;58152;49.202;18.744;2023-01-30T11:53:39;96823.94;;;-1.70;63.69
70589;BME280;58152;49.202;18.744;2023-01-30T11:56:13;96813.66;;;-1.72;63.48
70589;BME280;58152;49.202;18.744;2023-01-30T11:58:41;96806.78;;;-1.71;63.28
70589;BME280;58152;49.202;18.744;2023-01-30T12:01:11;96807.63;;;-1.68;63.43
70589;BME280;58152;49.202;18.744;2023-01-30T12:03:46;96801.63;;;-1.68;63.17
70589;BME280;58152;49.202;18.744;2023-01-30T12:06:24;96800.75;;;-1.66;63.54
70589;BME280;58152;49.202;18.744;2023-01-30T12:08:54;96775.91;;;-1.67;63.44
70589;BME280;58152;49.202;18.744;2023-01-30T12:24:45;96754.38;;;-1.55;63.07
70589;BME280;58152;49.202;18.744;2023-01-30T12:27:24;96749.22;;;-1.54;63.54
70589;BME280;58152;49.202;18.744;2023-01-30T12:29:58;96756.09;;;-1.51;62.64
70589;BME280;58152;49.202;18.744;2023-01-30T12:32:27;96755.19;;;-1.48;63.82
70589;BME280;58152;49.202;18.744;2023-01-30T12:34:52;96749.16;;;-1.47;64.32
70589;BME280;58152;49.202;18.744;2023-01-30T12:44:57;96736.25;;;-1.43;64.39
70589;BME280;58152;49.202;18.744;2023-01-30T12:55:44;96725.09;;;-1.40;64.75
70589;BME280;58152;49.202;18.744;2023-01-30T12:58:19;96728.53;;;-1.40;64.85
70589;BME280;58152;49.202;18.744;2023-01-30T13:01:01;96731.06;;;-1.35;65.27
70589;BME280;58152;49.202;18.744;2023-01-30T13:08:39;96715.50;;;-1.21;65.94
70589;BME280;58152;49.202;18.744;2023-01-30T13:14:33;96703.47;;;-1.19;65.44
70589;BME280;58152;49.202;18.744;2023-01-30T13:22:53;96694.06;;;-1.25;65.56
70589;BME280;58152;49.202;18.744;2023-01-30T13:28:54;96683.78;;;-1.25;66.46
70589;BME280;58152;49.202;18.744;2023-01-30T13:31:23;96700.88;;;-1.19;66.19
70589;BME280;58152;49.202;18.744;2023-01-30T13:34:01;96689.78;;;-1.23;65.50
70589;BME280;58152;49.202;18.744;2023-01-30T13:36:51;96698.31;;;-1.19;66.43
70589;BME280;58152;49.202;18.744;2023-01-30T13:39:29;96694.88;;;-1.18;66.67
70589;BME280;58152;49.202;18.744;2023-01-30T13:41:58;96698.28;;;-1.16;66.61
70589;BME280;58152;49.202;18.744;2023-01-30T13:44:29;96689.72;;;-1.17;66.72
70589;BME280;58152;49.202;18.744;2023-01-30T13:46:58;96685.41;;;-1.16;67.23
70589;BME280;58152;49.202;18.744;2023-01-30T13:49:42;96668.25;;;-1.16;67.25
70589;BME280;58152;49.202;18.744;2023-01-30T13:52:22;96665.66;;;-1.16;67.17
70589;BME280;58152;49.202;18.744;2023-01-30T14:00:30;96661.31;;;-1.08;68.34
70589;BME280;58152;49.202;18.744;2023-01-30T14:08:17;96669.75;;;-0.96;68.45
70589;BME280;58152;49.202;18.744;2023-01-30T14:10:44;96673.19;;;-0.97;69.19
70589;BME280;58152;49.202;18.744;2023-01-30T14:13:12;96662.06;;;-0.99;68.53
70589;BME280;58152;49.202;18.744;2023-01-30T14:15:40;96646.63;;;-1.01;69.03
70589;BME280;58152;49.202;18.744;2023-01-30T14:18:27;96649.19;;;-0.99;68.99
70589;BME280;58152;49.202;18.744;2023-01-30T14:21:13;96647.47;;;-0.99;69.56
70589;BME280;58152;49.202;18.744;2023-01-30T14:23:55;96644.06;;;-0.99;69.86
70589;BME280;58152;49.202;18.744;2023-01-30T14:39:54;96650.94;;;-1.02;69.87
70589;BME280;58152;49.202;18.744;2023-01-30T14:47:24;96671.44;;;-0.94;69.50
70589;BME280;58152;49.202;18.744;2023-01-30T14:49:51;96664.56;;;-0.93;69.58
70589;BME280;58152;49.202;18.744;2023-01-30T14:52:40;96667.06;;;-0.87;70.25
70589;BME280;58152;49.202;18.744;2023-01-30T14:55:16;96673.97;;;-0.89;70.00
70589;BME280;58152;49.202;18.744;2023-01-30T14:57:53;96685.94;;;-0.85;71.05
70589;BME280;58152;49.202;18.744;2023-01-30T15:00:25;96689.41;;;-0.88;70.49
70589;BME280;58152;49.202;18.744;2023-01-30T15:02:58;96676.59;;;-0.91;69.95
70589;BME280;58152;49.202;18.744;2023-01-30T15:05:31;96680.84;;;-0.87;70.23
70589;BME280;58152;49.202;18.744;2023-01-30T15:08:03;96666.22;;;-0.86;70.05
70589;BME280;58152;49.202;18.744;2023-01-30T15:10:54;96666.25;;;-0.89;70.16
70589;BME280;58152;49.202;18.744;2023-01-30T15:13:40;96674.81;;;-0.86;70.27
70589;BME280;58152;49.202;18.744;2023-01-30T15:19:23;96678.22;;;-0.85;70.38
70589;BME280;58152;49.202;18.744;2023-01-30T15:27:42;96683.34;;;-0.84;70.24
70589;BME280;58152;49.202;18.744;2023-01-30T15:30:21;96679.91;;;-0.81;70.06
70589;BME280;58152;49.202;18.744;2023-01-30T15:33:06;96680.78;;;-0.82;69.97
70589;BME280;58152;49.202;18.744;2023-01-30T15:35:31;96682.47;;;-0.81;70.70
70589;BME280;58152;49.202;18.744;2023-01-30T15:37:57;96669.59;;;-0.81;70.23
70589;BME280;58152;49.202;18.744;2023-01-30T15:40:25;96675.56;;;-0.79;70.12